Kamsack, Canada
Current Conditions -  °F | °C
As of 11:46 AM on Wednesday 26 Nov 2014 (Local Time) from CYQV Reporting Station
Scattered Clouds Scattered Clouds  
Wind Chill: -8°   Ceiling: Unl
Heat Index: -8°   Visibility: 9mi
Dew Point: -11°   Wind: 2mph
Humidity: 84%   Direction: 330°NNW
Pressure: 30.43"   Gusts: NA
Location:  51.57°N, 101.9°W
Report Text: CYQV 261746Z AUTO 33002KT 9SM SCT004 M22/M24 A3043 RMK SLP361
Loading
Personal Weather Stations






























Interactive Weather Map New forecast layout! Learn more

10-Day Weather Forecast

Advertisements
Track Severe Weather on mobile